VCBI/CMB METAR and TAF weather

Enter ICAO airport designator
Station Type Date Time Source
VCBI METAR 2022/01/29 13:10 UTC NOAA

VCBI 291310Z 35006KT 250V040 9000 FEW018 28/27 Q1009 NOSIG


Station Type Date Time Source
VCBI Decoded METAR 2022/01/29 13:10 UTC NOAA

Katunayake, Sri Lanka (VCBI) 07-10N 079-53E 8M
Jan 29, 2022 - 08:10 AM EST / 2022.01.29 1310 UTC
Wind: from the N (350 degrees) at 7 MPH (6 KT) (direction variable):0
Visibility: 5 mile(s):0
Sky conditions: mostly clear
Temperature: 82 F (28 C)
Dew Point: 80 F (27 C)
Relative Humidity: 94%
Pressure (altimeter): 29.80 in. Hg (1009 hPa)
ob: VCBI 291310Z 35006KT 250V040 9000 FEW018 28/27 Q1009 NOSIG
cycle: 13

Station Type Date Time Source
VCBI TAF 2022/01/29 12:06 UTC NOAA

TAF TAF VCBI 291100Z 2912/3018 VRB05KT 9999 FEW018 TX33/3007Z TN23/3000Z
TEMPO 2923/3002 7000

Example: see airport list